createdAt,value
2022-11-12T00:01:43.008Z,101822.69
2022-11-12T00:04:28.800Z,101817.53
2022-11-12T00:07:14.510Z,101816.72
2022-11-12T00:10:00.266Z,101806.28
2022-11-12T00:12:46.150Z,101816.72
2022-11-12T00:15:32.075Z,101826.19
2022-11-12T00:18:18.245Z,101821.88
2022-11-12T00:21:04.120Z,101816.66
2022-11-12T00:23:49.871Z,101820.22
2022-11-12T00:26:35.853Z,101824.56
2022-11-12T00:29:21.588Z,101823.69
2022-11-12T00:32:08.018Z,101825.44
2022-11-12T00:34:54.262Z,101824.56
2022-11-12T00:37:40.100Z,101821.94
2022-11-12T00:40:26.770Z,101822.00
2022-11-12T00:43:12.664Z,101826.31
2022-11-12T00:45:58.377Z,101827.16
2022-11-12T00:48:44.246Z,101825.44
2022-11-12T00:51:30.318Z,101823.66
2022-11-12T00:54:16.428Z,101828.78
2022-11-12T00:57:02.231Z,101825.38
2022-11-12T00:59:48.348Z,101814.16
2022-11-12T01:02:42.323Z,101816.66
2022-11-12T01:05:29.982Z,101816.59
2022-11-12T01:08:16.039Z,101830.44
2022-11-12T01:11:10.220Z,101802.72
2022-11-12T01:14:05.071Z,101820.97
2022-11-12T01:16:51.059Z,101811.38
2022-11-12T01:19:36.875Z,101824.34
2022-11-12T01:22:22.681Z,101828.66
2022-11-12T01:25:08.865Z,101829.50
2022-11-12T01:27:55.041Z,101832.09
2022-11-12T01:30:40.838Z,101829.50
2022-11-12T01:33:26.652Z,101826.06
2022-11-12T01:36:13.605Z,101827.00
2022-11-12T01:38:59.406Z,101828.72
2022-11-12T01:41:45.372Z,101825.28
2022-11-12T01:44:32.745Z,101821.88
2022-11-12T01:47:25.488Z,101820.97
2022-11-12T01:50:26.227Z,101824.47
2022-11-12T01:53:14.139Z,101828.75
2022-11-12T01:56:01.427Z,101828.84
2022-11-12T01:58:49.421Z,101832.28
2022-11-12T02:01:37.230Z,101827.09
2022-11-12T02:04:24.009Z,101821.88
2022-11-12T02:07:11.045Z,101822.81
2022-11-12T02:09:58.214Z,101827.97
2022-11-12T02:13:03.665Z,101833.19
2022-11-12T02:15:49.748Z,101830.59
2022-11-12T02:18:35.899Z,101835.78
2022-11-12T02:21:23.585Z,101834.06
2022-11-12T02:24:12.371Z,101842.66
2022-11-12T02:26:59.128Z,101842.66
2022-11-12T02:29:48.064Z,101852.13
2022-11-12T02:32:33.935Z,101848.69
2022-11-12T02:35:19.778Z,101849.56
2022-11-12T02:38:06.866Z,101844.41
2022-11-12T02:40:53.309Z,101847.81
2022-11-12T02:43:39.888Z,101844.34
2022-11-12T02:46:25.802Z,101846.03
2022-11-12T02:49:11.695Z,101843.47
2022-11-12T02:51:57.634Z,101849.50
2022-11-12T02:54:43.311Z,101852.94
2022-11-12T02:57:30.564Z,101842.56
2022-11-12T03:00:16.929Z,101845.13
2022-11-12T03:03:02.878Z,101852.03
2022-11-12T03:06:00.820Z,101862.41
2022-11-12T03:08:46.967Z,101859.75
2022-11-12T03:11:32.840Z,101861.44
2022-11-12T03:14:18.772Z,101865.00
2022-11-12T03:17:04.978Z,101870.16
2022-11-12T03:19:50.649Z,101869.34
2022-11-12T03:22:37.441Z,101873.66
2022-11-12T03:25:24.273Z,101877.09
2022-11-12T03:28:12.245Z,101868.47
2022-11-12T03:31:00.085Z,101870.22
2022-11-12T03:33:46.097Z,101868.47
2022-11-12T03:36:32.134Z,101858.16
2022-11-12T03:39:18.440Z,101858.09
2022-11-12T03:42:04.621Z,101862.47
2022-11-12T03:44:50.690Z,101865.06
2022-11-12T03:47:36.807Z,101869.41
2022-11-12T03:50:26.511Z,101873.72
2022-11-12T03:53:12.529Z,101870.31
2022-11-12T03:55:58.697Z,101873.69
2022-11-12T03:58:44.581Z,101885.81
2022-11-12T04:01:30.603Z,101870.31
2022-11-12T04:04:16.238Z,101878.88
2022-11-12T04:07:20.304Z,101873.72
2022-11-12T04:10:06.365Z,101868.44
2022-11-12T04:13:10.743Z,101880.53
2022-11-12T04:16:21.025Z,101878.00
2022-11-12T04:19:26.050Z,101883.22
2022-11-12T04:22:12.267Z,101878.81
2022-11-12T04:25:16.362Z,101870.16
2022-11-12T04:28:02.202Z,101884.09
2022-11-12T04:30:48.143Z,101879.84
2022-11-12T04:33:34.308Z,101880.69
2022-11-12T04:36:20.539Z,101878.94
2022-11-12T04:39:06.542Z,101872.84
2022-11-12T04:42:11.260Z,101861.66
2022-11-12T04:44:57.615Z,101878.97
2022-11-12T04:47:46.935Z,101867.69
2022-11-12T04:50:32.773Z,101876.34
2022-11-12T04:53:19.101Z,101870.44
2022-11-12T04:56:05.123Z,101853.69
2022-11-12T04:58:51.279Z,101869.53
2022-11-12T05:01:37.247Z,101868.66
2022-11-12T05:04:23.161Z,101868.66
2022-11-12T05:07:09.560Z,101867.75
2022-11-12T05:09:55.371Z,101866.94
2022-11-12T05:12:41.058Z,101867.84
2022-11-12T05:15:26.741Z,101865.25
2022-11-12T05:18:12.869Z,101873.88
2022-11-12T05:21:18.799Z,101875.59
2022-11-12T05:24:04.887Z,101873.03
2022-11-12T05:26:50.964Z,101868.75
2022-11-12T05:29:37.319Z,101880.81
2022-11-12T05:32:23.114Z,101873.94
2022-11-12T05:35:09.118Z,101877.31
2022-11-12T05:37:55.034Z,101875.59
2022-11-12T05:40:45.492Z,101879.91
2022-11-12T05:43:31.239Z,101891.16
2022-11-12T05:46:18.385Z,101892.81
2022-11-12T05:49:04.466Z,101890.19
2022-11-12T05:51:51.774Z,101891.03
2022-11-12T05:54:37.365Z,101894.59
2022-11-12T05:57:23.364Z,101893.69
2022-11-12T06:00:09.948Z,101899.66
2022-11-12T06:02:58.941Z,101896.19
2022-11-12T06:05:44.966Z,101890.97
2022-11-12T06:08:30.737Z,101896.03
2022-11-12T06:11:16.509Z,101902.97
2022-11-12T06:14:04.042Z,101900.38
2022-11-12T06:16:49.904Z,101902.91
2022-11-12T06:19:35.800Z,101914.91
2022-11-12T06:22:21.761Z,101911.41
2022-11-12T06:25:07.977Z,101915.72
2022-11-12T06:27:53.810Z,101910.47
2022-11-12T06:30:39.551Z,101910.50
2022-11-12T06:33:25.411Z,101912.19
2022-11-12T06:36:13.270Z,101904.28
2022-11-12T06:38:59.426Z,101920.81
2022-11-12T06:41:45.422Z,101919.94
2022-11-12T06:44:31.290Z,101923.34
2022-11-12T06:47:17.624Z,101921.66
2022-11-12T06:50:03.702Z,101933.72
2022-11-12T06:52:49.601Z,101926.91
2022-11-12T06:55:35.725Z,101923.50
2022-11-12T06:58:21.743Z,101926.09
2022-11-12T07:01:12.070Z,101930.41
2022-11-12T07:03:58.209Z,101937.28
2022-11-12T07:06:44.462Z,101932.13
2022-11-12T07:09:30.692Z,101940.78
2022-11-12T07:12:16.864Z,101942.53
2022-11-12T07:15:02.874Z,101938.22
2022-11-12T07:17:48.829Z,101944.34
2022-11-12T07:20:35.394Z,101941.84
2022-11-12T07:23:21.088Z,101947.91
2022-11-12T07:26:22.014Z,101942.69
2022-11-12T07:29:07.881Z,101953.16
2022-11-12T07:31:53.983Z,101946.25
2022-11-12T07:34:39.829Z,101948.03
2022-11-12T07:37:25.669Z,101948.91
2022-11-12T07:40:12.064Z,101924.53
2022-11-12T07:42:59.510Z,101959.41
2022-11-12T07:45:45.450Z,101939.47
2022-11-12T07:48:32.479Z,101956.94
2022-11-12T07:51:26.283Z,101955.22
2022-11-12T07:54:12.164Z,101959.47
2022-11-12T07:56:58.009Z,101956.91
2022-11-12T07:59:46.293Z,101955.22
2022-11-12T08:02:32.610Z,101958.66
2022-11-12T08:05:21.362Z,101965.63
2022-11-12T08:08:07.563Z,101961.31
2022-11-12T08:10:57.396Z,101973.41
2022-11-12T08:13:43.087Z,101965.69
2022-11-12T08:16:28.858Z,101967.44
2022-11-12T08:19:14.850Z,101969.19
2022-11-12T08:22:00.831Z,101957.13
2022-11-12T08:24:46.910Z,101958.91
2022-11-12T08:27:32.598Z,101964.13
2022-11-12T08:30:18.448Z,101967.63
2022-11-12T08:33:06.327Z,101967.63
2022-11-12T08:35:52.370Z,101972.78
2022-11-12T08:38:39.350Z,101974.53
2022-11-12T08:41:25.401Z,101974.53
2022-11-12T08:44:11.239Z,101965.91
2022-11-12T08:46:57.151Z,101978.09
2022-11-12T08:49:47.802Z,101980.72
2022-11-12T08:52:34.396Z,101985.09
2022-11-12T08:55:20.288Z,101981.69
2022-11-12T08:58:06.689Z,101981.69
2022-11-12T09:00:53.490Z,101994.72
2022-11-12T09:03:39.170Z,101986.94
2022-11-12T09:06:25.134Z,101990.50
2022-11-12T09:09:12.677Z,101990.53
2022-11-12T09:11:58.739Z,101992.31
2022-11-12T09:14:44.628Z,101999.28
2022-11-12T09:17:31.325Z,102009.63
2022-11-12T09:20:17.412Z,102001.91
2022-11-12T09:23:07.635Z,102005.34
2022-11-12T09:25:56.121Z,102006.25
2022-11-12T09:28:42.031Z,102010.59
2022-11-12T09:31:28.371Z,102002.81
2022-11-12T09:34:14.633Z,102014.03
2022-11-12T09:37:00.734Z,101995.94
2022-11-12T09:39:46.729Z,102002.88
2022-11-12T09:42:36.583Z,102001.25
2022-11-12T09:45:32.967Z,102003.09
2022-11-12T09:48:27.699Z,101992.75
2022-11-12T09:51:19.029Z,101997.16
2022-11-12T09:54:20.098Z,101996.31
2022-11-12T09:57:10.260Z,101995.53
2022-11-12T09:59:57.311Z,101994.75
2022-11-12T10:03:04.911Z,101993.84
2022-11-12T10:06:10.646Z,102002.50
2022-11-12T10:09:12.476Z,101989.69
2022-11-12T10:12:33.310Z,102005.25
2022-11-12T10:15:57.242Z,101994.91
2022-11-12T10:19:19.497Z,102001.81
2022-11-12T10:22:13.030Z,102015.72
2022-11-12T10:25:10.020Z,102007.13
2022-11-12T10:27:56.726Z,102017.53
2022-11-12T10:30:43.917Z,102011.50
2022-11-12T10:33:31.530Z,102004.56
2022-11-12T10:36:36.305Z,101998.56
2022-11-12T10:39:37.591Z,102007.25
2022-11-12T10:42:24.150Z,101989.06
2022-11-12T10:45:28.724Z,102001.22
2022-11-12T10:48:40.842Z,101989.19
2022-11-12T10:51:36.061Z,102004.75
2022-11-12T10:54:27.920Z,101984.09
2022-11-12T10:57:25.650Z,101990.19
2022-11-12T11:00:14.979Z,101979.81
2022-11-12T11:03:05.258Z,101983.28
2022-11-12T11:05:55.902Z,101975.53
2022-11-12T11:08:47.335Z,101986.81
2022-11-12T11:11:32.982Z,101981.63
2022-11-12T11:14:28.752Z,101989.41
2022-11-12T11:17:18.824Z,101985.09
2022-11-12T11:20:15.199Z,101983.38
2022-11-12T11:23:11.224Z,101987.63
2022-11-12T11:26:07.467Z,101985.91
2022-11-12T11:29:14.281Z,101985.06
2022-11-12T11:32:09.168Z,101979.88
2022-11-12T11:35:18.574Z,101976.56
2022-11-12T11:38:22.604Z,101990.41
2022-11-12T11:41:36.197Z,101985.28
2022-11-12T11:44:51.209Z,101994.78
2022-11-12T11:48:05.745Z,101995.63
2022-11-12T11:51:24.794Z,101994.78
2022-11-12T11:54:35.524Z,101986.09
2022-11-12T11:57:30.469Z,101992.19
2022-11-12T12:00:22.403Z,101983.59
2022-11-12T12:03:40.676Z,101984.50
2022-11-12T12:06:37.256Z,101992.28
2022-11-12T12:09:35.494Z,101983.69
2022-11-12T12:12:31.155Z,101995.78
2022-11-12T12:15:47.883Z,101990.59
2022-11-12T12:18:52.674Z,101994.94
2022-11-12T12:21:43.113Z,101988.06
2022-11-12T12:24:43.694Z,101985.41
2022-11-12T12:27:37.643Z,101997.53
2022-11-12T12:30:25.924Z,101997.59
2022-11-12T12:33:38.224Z,101988.88
2022-11-12T12:36:35.142Z,101985.34
2022-11-12T12:39:48.242Z,101994.03
2022-11-12T12:43:20.723Z,101993.13
2022-11-12T12:46:07.914Z,101991.41
2022-11-12T12:48:55.767Z,101980.19
2022-11-12T12:51:41.953Z,101981.91
2022-11-12T12:54:39.798Z,101981.91
2022-11-12T12:57:40.190Z,101981.06
2022-11-12T13:00:32.585Z,101985.31
2022-11-12T13:03:43.105Z,101985.38
2022-11-12T13:06:31.476Z,101986.22
2022-11-12T13:09:17.120Z,101991.47
2022-11-12T13:12:05.946Z,101991.50
2022-11-12T13:14:54.620Z,101997.59
2022-11-12T13:17:46.322Z,101987.28
2022-11-12T13:20:34.884Z,101981.28
2022-11-12T13:24:07.577Z,101990.75
2022-11-12T13:27:00.687Z,101989.03
2022-11-12T13:29:49.220Z,101982.13
2022-11-12T13:32:50.136Z,101980.41
2022-11-12T13:35:38.754Z,101980.41
2022-11-12T13:38:24.982Z,101986.41
2022-11-12T13:41:41.837Z,101984.59
2022-11-12T13:44:29.328Z,101982.00
2022-11-12T13:47:21.869Z,101988.88
2022-11-12T13:50:11.133Z,101987.09
2022-11-12T13:52:57.364Z,101987.09
2022-11-12T13:55:51.688Z,101988.81
2022-11-12T13:58:40.136Z,101977.47
2022-11-12T14:01:26.390Z,101988.81
2022-11-12T14:04:18.848Z,101989.63
2022-11-12T14:07:36.525Z,101992.19
2022-11-12T14:10:40.057Z,101993.94
2022-11-12T14:13:43.433Z,101989.63
2022-11-12T14:16:41.252Z,101993.94
2022-11-12T14:19:27.002Z,101999.13
2022-11-12T14:22:17.002Z,101993.06
2022-11-12T14:25:04.128Z,101996.44
2022-11-12T14:27:52.658Z,101993.88
2022-11-12T14:30:44.964Z,101983.50
2022-11-12T14:33:32.693Z,101981.75
2022-11-12T14:36:19.495Z,101991.28
2022-11-12T14:39:07.075Z,101986.88
2022-11-12T14:41:54.008Z,101997.28
2022-11-12T14:44:40.576Z,101999.00
2022-11-12T14:47:28.087Z,101998.94
2022-11-12T14:50:26.627Z,101990.28
2022-11-12T14:53:41.657Z,101984.22
2022-11-12T14:56:45.337Z,101982.50
2022-11-12T14:59:32.477Z,101985.97
2022-11-12T15:02:37.620Z,101986.81
2022-11-12T15:05:33.446Z,101985.06
2022-11-12T15:08:30.346Z,101987.63
2022-11-12T15:11:31.797Z,101990.22
2022-11-12T15:14:24.938Z,101983.38
2022-11-12T15:17:33.096Z,101979.88
2022-11-12T15:20:20.377Z,101990.22
2022-11-12T15:23:07.126Z,101985.06
2022-11-12T15:26:00.577Z,101991.91
2022-11-12T15:29:22.782Z,101977.09
2022-11-12T15:32:14.056Z,101997.94
2022-11-12T15:34:59.929Z,101990.19
2022-11-12T15:37:46.116Z,101997.03
2022-11-12T15:40:33.602Z,101995.34
2022-11-12T15:43:24.202Z,102002.25
2022-11-12T15:46:17.620Z,102005.72
2022-11-12T15:49:03.687Z,102012.63
2022-11-12T15:51:49.955Z,102025.50
2022-11-12T15:54:40.697Z,102013.47
2022-11-12T15:57:32.088Z,102017.75
2022-11-12T16:00:18.482Z,102023.84
2022-11-12T16:03:17.996Z,102032.47
2022-11-12T16:06:08.642Z,102032.47
2022-11-12T16:08:55.044Z,102034.22
2022-11-12T16:11:41.286Z,102029.81
2022-11-12T16:14:28.334Z,102033.31
2022-11-12T16:17:16.349Z,102035.09
2022-11-12T16:20:02.280Z,102037.69
2022-11-12T16:22:49.156Z,102021.28
2022-11-12T16:25:37.438Z,102024.75
2022-11-12T16:28:23.133Z,102014.34
2022-11-12T16:31:09.090Z,102025.66
2022-11-12T16:33:54.815Z,102026.47
2022-11-12T16:36:40.756Z,102023.06
2022-11-12T16:39:27.109Z,102018.69
2022-11-12T16:42:13.412Z,102026.47
2022-11-12T16:44:59.480Z,102017.78
2022-11-12T16:47:56.556Z,102019.56
2022-11-12T16:50:42.398Z,102012.63
2022-11-12T16:53:28.738Z,102012.63
2022-11-12T16:56:18.438Z,102028.16
2022-11-12T16:59:04.923Z,102017.75
2022-11-12T17:01:50.880Z,102022.16
2022-11-12T17:04:36.891Z,102016.94
2022-11-12T17:07:23.213Z,102027.22
2022-11-12T17:10:09.666Z,102027.28
2022-11-12T17:12:55.749Z,102019.53
2022-11-12T17:15:41.597Z,102025.56
2022-11-12T17:18:27.417Z,102027.28
2022-11-12T17:21:16.686Z,102028.16
2022-11-12T17:24:02.601Z,102019.50
2022-11-12T17:26:48.497Z,102021.25
2022-11-12T17:29:34.117Z,102021.25
2022-11-12T17:32:20.313Z,102021.25
2022-11-12T17:35:07.348Z,102019.53
2022-11-12T17:37:53.616Z,102022.97
2022-11-12T17:40:39.840Z,102016.94
2022-11-12T17:43:26.994Z,102020.38
2022-11-12T17:46:15.356Z,102017.78
2022-11-12T17:49:01.866Z,102014.28
2022-11-12T17:51:47.967Z,102028.09
2022-11-12T17:54:34.916Z,102025.50
2022-11-12T17:57:21.137Z,102014.34
2022-11-12T18:00:07.812Z,102011.66
2022-11-12T18:02:56.265Z,102022.91
2022-11-12T18:05:42.367Z,101984.63
2022-11-12T18:08:28.524Z,102030.69
2022-11-12T18:11:15.627Z,102021.19
2022-11-12T18:14:07.623Z,102010.84
2022-11-12T18:16:53.730Z,102006.38
2022-11-12T18:19:39.741Z,102019.47
2022-11-12T18:22:26.414Z,102017.66
2022-11-12T18:25:13.268Z,102020.28
2022-11-12T18:27:59.415Z,102019.38
2022-11-12T18:30:45.216Z,102014.16
2022-11-12T18:33:31.945Z,102023.69
2022-11-12T18:36:24.619Z,102018.50
2022-11-12T18:39:10.654Z,102028.00
2022-11-12T18:41:56.453Z,102033.16
2022-11-12T18:44:42.410Z,102026.25
2022-11-12T18:47:30.600Z,102030.53
2022-11-12T18:50:16.901Z,102036.63
2022-11-12T18:53:02.726Z,102041.78
2022-11-12T18:55:48.736Z,102037.44
2022-11-12T18:58:35.581Z,102034.78
2022-11-12T19:01:23.535Z,102041.66
2022-11-12T19:04:11.626Z,102048.59
2022-11-12T19:06:57.406Z,102041.66
2022-11-12T19:09:43.567Z,102042.56
2022-11-12T19:12:29.410Z,102042.56
2022-11-12T19:15:15.604Z,102035.53
2022-11-12T19:18:01.771Z,102046.78
2022-11-12T19:20:48.411Z,102057.13
2022-11-12T19:23:34.328Z,102056.25
2022-11-12T19:26:21.373Z,102043.31
2022-11-12T19:29:07.772Z,102048.47
2022-11-12T19:31:54.738Z,102053.66
2022-11-12T19:34:40.860Z,102050.22
2022-11-12T19:37:33.492Z,102054.53
2022-11-12T19:40:20.327Z,102045.75
2022-11-12T19:43:06.311Z,102060.56
2022-11-12T19:45:52.377Z,102054.53
2022-11-12T19:48:38.908Z,102053.56
2022-11-12T19:51:25.078Z,102050.16
2022-11-12T19:54:11.471Z,102062.25
2022-11-12T19:56:57.361Z,102037.94
2022-11-12T19:59:43.463Z,102044.94
2022-11-12T20:02:29.483Z,102039.69
2022-11-12T20:05:15.616Z,102043.16
2022-11-12T20:08:01.502Z,102044.06
2022-11-12T20:10:47.584Z,102041.50
2022-11-12T20:13:33.904Z,102038.03
2022-11-12T20:16:25.197Z,102043.22
2022-11-12T20:19:11.786Z,102046.66
2022-11-12T20:21:57.736Z,102040.63
2022-11-12T20:24:43.758Z,102036.25
2022-11-12T20:27:29.672Z,102050.06
2022-11-12T20:30:15.813Z,102051.78
2022-11-12T20:33:01.750Z,102047.47
2022-11-12T20:35:47.692Z,102054.31
2022-11-12T20:38:36.610Z,102048.28
2022-11-12T20:41:25.028Z,102058.63
2022-11-12T20:44:10.671Z,102055.13
2022-11-12T20:46:56.658Z,102053.41
2022-11-12T20:49:42.471Z,102062.06
2022-11-12T20:52:28.198Z,102059.44
2022-11-12T20:55:14.278Z,102056.78
2022-11-12T20:58:00.727Z,102046.34
2022-11-12T21:00:46.437Z,102060.25
2022-11-12T21:03:34.102Z,102054.25
2022-11-12T21:06:23.034Z,102051.63
2022-11-12T21:09:08.943Z,102048.94
2022-11-12T21:11:54.954Z,102039.56
2022-11-12T21:14:43.768Z,102043.81
2022-11-12T21:17:33.728Z,102047.25
2022-11-12T21:20:19.700Z,102050.72
2022-11-12T21:23:05.573Z,102041.25
2022-11-12T21:25:51.659Z,102034.31
2022-11-12T21:28:38.651Z,102034.31
2022-11-12T21:31:29.881Z,102041.16
2022-11-12T21:34:15.967Z,102045.47
2022-11-12T21:37:01.993Z,102042.06
2022-11-12T21:39:49.517Z,102040.31
2022-11-12T21:42:35.692Z,102044.66
2022-11-12T21:45:21.412Z,102051.56
2022-11-12T21:48:07.381Z,102046.28
2022-11-12T21:50:53.260Z,102055.06
2022-11-12T21:53:39.703Z,102043.75
2022-11-12T21:56:26.534Z,102056.78
2022-11-12T21:59:12.399Z,102044.66
2022-11-12T22:01:58.284Z,102038.53
2022-11-12T22:04:44.133Z,102056.78
2022-11-12T22:07:29.725Z,102050.66
2022-11-12T22:10:15.746Z,102058.53
2022-11-12T22:16:12.238Z,102055.06
2022-11-12T22:18:58.748Z,102061.06
2022-11-12T22:21:44.696Z,102048.16
2022-11-12T22:24:30.528Z,102060.25
2022-11-12T22:27:16.587Z,102049.03
2022-11-12T22:30:02.533Z,102036.84
2022-11-12T22:32:48.638Z,102054.22
2022-11-12T22:35:35.933Z,102054.22
2022-11-12T22:38:21.759Z,102055.94
2022-11-12T22:41:12.768Z,102049.91
2022-11-12T22:44:01.525Z,102037.00
2022-11-12T22:46:47.340Z,102030.81
2022-11-12T22:49:33.479Z,102037.88
2022-11-12T22:52:19.607Z,102021.44
2022-11-12T22:55:05.961Z,102021.50
2022-11-12T22:57:51.665Z,102029.25
2022-11-12T23:00:37.617Z,102034.44
2022-11-12T23:03:23.808Z,102025.84
2022-11-12T23:06:10.374Z,102019.81
2022-11-12T23:09:01.590Z,102020.63
2022-11-12T23:11:47.497Z,102022.34
2022-11-12T23:14:33.722Z,102022.34
2022-11-12T23:17:20.636Z,102030.13
2022-11-12T23:20:07.482Z,102020.63
2022-11-12T23:22:53.604Z,102022.34
2022-11-12T23:25:39.398Z,102027.53
2022-11-12T23:28:25.531Z,102022.34
2022-11-12T23:31:17.686Z,101997.09
2022-11-12T23:34:03.531Z,102015.44
2022-11-12T23:36:49.573Z,102010.28
2022-11-12T23:39:35.305Z,102007.66
2022-11-12T23:42:22.248Z,102007.63
2022-11-12T23:45:08.863Z,102015.41
2022-11-12T23:47:56.271Z,102011.09
2022-11-12T23:50:42.312Z,102005.06
2022-11-12T23:53:27.990Z,101995.44
2022-11-12T23:56:15.868Z,102003.28
2022-11-12T23:59:01.878Z,101999.88
